CheckWX is a tool to help pilots better visualize weather data.  It is not intended as a substitute for an official pre-flight weather briefing.

19:22:27 UTC

HTSU METAR
Sumbawanga Airport
Sumbawanga, Tanzania
Current

2 hours ago

HTSU 191700Z 00000KT 9999 VCTS SCT017 FEW019CB OVC080 17/15 Q1018
Observed
Feb-19 @ 17:00 UTC
Visibility
10,000+ meters
Flight Rules
VFR
Conditions
Area Thunderstorm
Cloud Levels
  • Scattered at 1,700' AGL
  • Few at 1,900' AGL
  • Overcast at 8,000' AGL
Temperature
17°C / 63°F
Dewpoint
15°C / 59°F
Humidity
88%
Altimeter
30.06" Hg
Pressure
1017.92 hPa
Previous

3 hours ago

HTSU 191600Z 00000KT 9999 BKN017FEW02CB OVC200 17/15 Q1018 RERA
Observed
Feb-19 @ 16:00 UTC
Visibility
10,000+ meters
Flight Rules
VFR
Cloud Levels
  • Overcast at 20,000' AGL
Temperature
17°C / 63°F
Dewpoint
15°C / 59°F
Humidity
88%
Altimeter
30.06" Hg
Pressure
1017.92 hPa
Previous

4 hours ago

HTSU 191500Z 00000KT 6000 -RA BKN017 FEW020CB OVC200 17/14 Q1018
Observed
Feb-19 @ 15:00 UTC
Visibility
6,003 meters
Flight Rules
MVFR
Conditions
Light Rain
Cloud Levels
  • Broken at 1,700' AGL
  • Few at 2,000' AGL
  • Overcast at 20,000' AGL
Temperature
17°C / 63°F
Dewpoint
14°C / 57°F
Humidity
83%
Altimeter
30.06" Hg
Pressure
1017.92 hPa